createdAt,value
2018-11-25T00:00:30.617Z,22.57
2018-11-25T00:02:59.565Z,21.30
2018-11-25T00:07:56.418Z,21.37
2018-11-25T00:10:25.400Z,21.60
2018-11-25T00:12:55.186Z,21.93
2018-11-25T00:15:24.121Z,22.63
2018-11-25T00:17:53.092Z,21.87
2018-11-25T00:20:22.027Z,21.90
2018-11-25T00:22:50.969Z,21.90
2018-11-25T00:25:19.930Z,21.03
2018-11-25T00:27:48.880Z,21.63
2018-11-25T00:30:17.891Z,22.00
2018-11-25T00:32:46.792Z,22.77
2018-11-25T00:35:16.521Z,22.70
2018-11-25T00:37:48.217Z,22.70
2018-11-25T00:40:15.334Z,22.47
2018-11-25T00:42:44.881Z,21.83
2018-11-25T00:45:15.068Z,21.80
2018-11-25T00:47:44.021Z,20.27
2018-11-25T00:50:14.609Z,22.07
2018-11-25T00:52:43.628Z,21.27
2018-11-25T00:55:17.424Z,21.63
2018-11-25T00:57:46.498Z,21.07
2018-11-25T01:00:18.412Z,20.60
2018-11-25T01:02:49.417Z,21.00
2018-11-25T01:05:18.381Z,22.10
2018-11-25T01:07:47.350Z,22.57
2018-11-25T01:10:16.813Z,23.47
2018-11-25T01:12:46.055Z,21.87
2018-11-25T01:15:16.807Z,22.03
2018-11-25T01:17:45.868Z,24.17
2018-11-25T01:20:18.712Z,20.30
2018-11-25T01:22:47.667Z,23.17
2018-11-25T01:25:16.594Z,22.30
2018-11-25T01:27:45.563Z,25.07
2018-11-25T01:30:15.382Z,24.20
2018-11-25T01:32:44.336Z,24.70
2018-11-25T01:35:13.519Z,22.03
2018-11-25T01:37:42.564Z,22.80
2018-11-25T01:40:17.312Z,24.83
2018-11-25T01:42:46.323Z,26.17
2018-11-25T01:45:16.105Z,25.37
2018-11-25T01:47:45.111Z,24.63
2018-11-25T01:50:17.984Z,24.77
2018-11-25T01:52:47.503Z,26.33
2018-11-25T01:55:18.446Z,23.00
2018-11-25T01:57:47.417Z,23.80
2018-11-25T02:00:19.265Z,25.03
2018-11-25T02:02:48.274Z,25.10
2018-11-25T02:05:17.221Z,22.23
2018-11-25T02:07:46.167Z,25.20
2018-11-25T02:10:16.071Z,22.73
2018-11-25T02:12:45.017Z,23.37
2018-11-25T02:15:14.897Z,25.67
2018-11-25T02:17:43.850Z,22.63
2018-11-25T02:20:20.851Z,23.23
2018-11-25T02:22:50.256Z,24.20
2018-11-25T02:25:20.076Z,24.77
2018-11-25T02:27:49.059Z,24.10
2018-11-25T02:30:18.182Z,24.87
2018-11-25T02:32:47.421Z,23.97
2018-11-25T02:35:17.076Z,23.60
2018-11-25T02:37:46.121Z,23.20
2018-11-25T02:40:15.913Z,23.70
2018-11-25T02:42:44.896Z,25.53
2018-11-25T02:45:17.555Z,26.43
2018-11-25T02:47:46.521Z,24.20
2018-11-25T02:50:22.911Z,23.33
2018-11-25T02:52:51.952Z,23.63
2018-11-25T02:55:22.945Z,24.97
2018-11-25T02:57:51.912Z,23.90
2018-11-25T03:00:20.878Z,26.07
2018-11-25T03:02:49.815Z,25.60
2018-11-25T03:05:18.764Z,24.53
2018-11-25T03:07:47.692Z,24.20
2018-11-25T03:10:16.652Z,23.13
2018-11-25T03:12:45.693Z,24.60
2018-11-25T03:15:16.632Z,24.53
2018-11-25T03:17:45.644Z,26.60
2018-11-25T03:20:16.311Z,25.40
2018-11-25T03:22:45.269Z,26.60
2018-11-25T03:25:17.251Z,26.10
2018-11-25T03:27:46.263Z,25.70
2018-11-25T03:30:17.052Z,25.60
2018-11-25T03:32:46.839Z,26.17
2018-11-25T03:35:15.835Z,24.47
2018-11-25T03:37:44.740Z,24.00
2018-11-25T03:40:15.493Z,25.77
2018-11-25T03:42:44.443Z,27.10
2018-11-25T03:45:15.233Z,25.40
2018-11-25T03:47:44.154Z,23.80
2018-11-25T03:50:13.730Z,23.53
2018-11-25T03:52:42.688Z,24.00
2018-11-25T03:55:13.454Z,23.43
2018-11-25T03:57:42.392Z,26.07
2018-11-25T04:00:12.623Z,24.60
2018-11-25T04:02:41.557Z,24.43
2018-11-25T04:05:11.681Z,25.07
2018-11-25T04:07:40.656Z,22.90
2018-11-25T04:10:12.637Z,24.40
2018-11-25T04:12:41.588Z,21.80
2018-11-25T04:15:11.565Z,24.87
2018-11-25T04:17:40.515Z,22.83
2018-11-25T04:20:11.084Z,23.10
2018-11-25T04:22:40.042Z,21.40
2018-11-25T04:25:09.895Z,22.90
2018-11-25T04:27:38.878Z,24.40
2018-11-25T04:30:12.081Z,21.07
2018-11-25T04:32:49.042Z,24.23
2018-11-25T04:35:18.044Z,22.40
2018-11-25T04:37:47.000Z,21.17
2018-11-25T04:40:17.874Z,21.60
2018-11-25T04:42:46.874Z,20.77
2018-11-25T04:45:16.583Z,22.73
2018-11-25T04:47:46.295Z,20.33
2018-11-25T04:50:17.221Z,23.07
2018-11-25T04:52:46.167Z,22.30
2018-11-25T04:55:15.146Z,24.50
2018-11-25T04:57:50.853Z,22.53
2018-11-25T05:00:19.993Z,23.77
2018-11-25T05:02:49.808Z,23.10
2018-11-25T05:05:18.758Z,24.30
2018-11-25T05:07:47.713Z,24.00
2018-11-25T05:10:17.474Z,23.50
2018-11-25T05:12:46.435Z,23.97
2018-11-25T05:15:17.264Z,23.33
2018-11-25T05:17:46.220Z,22.13
2018-11-25T05:20:15.661Z,23.30
2018-11-25T05:22:44.631Z,22.73
2018-11-25T05:25:15.389Z,21.60
2018-11-25T05:27:44.352Z,23.80
2018-11-25T05:30:14.517Z,22.00
2018-11-25T05:32:43.455Z,23.67
2018-11-25T05:35:14.563Z,23.37
2018-11-25T05:37:43.531Z,24.10
2018-11-25T05:40:13.464Z,24.37
2018-11-25T05:42:42.512Z,23.17
2018-11-25T05:45:12.578Z,25.30
2018-11-25T05:47:41.507Z,23.40
2018-11-25T05:50:12.404Z,24.90
2018-11-25T05:52:41.362Z,22.93
2018-11-25T05:55:11.317Z,24.83
2018-11-25T05:57:40.285Z,23.33
2018-11-25T06:00:11.941Z,24.23
2018-11-25T06:02:40.906Z,24.17
2018-11-25T06:05:09.848Z,24.27
2018-11-25T06:07:38.861Z,23.97
2018-11-25T06:10:11.835Z,23.90
2018-11-25T06:12:40.852Z,24.10
2018-11-25T06:15:11.030Z,24.40
2018-11-25T06:17:40.037Z,24.60
2018-11-25T06:20:13.154Z,22.67
2018-11-25T06:22:42.148Z,22.13
2018-11-25T06:25:13.927Z,24.60
2018-11-25T06:27:42.878Z,24.37
2018-11-25T06:30:16.777Z,23.57
2018-11-25T06:32:45.800Z,22.70
2018-11-25T06:35:15.681Z,23.70
2018-11-25T06:37:44.663Z,22.37
2018-11-25T06:40:17.564Z,23.03
2018-11-25T06:42:46.527Z,22.17
2018-11-25T06:45:23.653Z,23.27
2018-11-25T06:47:53.254Z,21.17
2018-11-25T06:50:22.197Z,22.73
2018-11-25T06:52:51.140Z,24.97
2018-11-25T06:55:20.140Z,22.50
2018-11-25T06:57:49.074Z,23.33
2018-11-25T07:00:20.570Z,23.83
2018-11-25T07:02:49.797Z,23.67
2018-11-25T07:05:18.762Z,22.10
2018-11-25T07:07:47.723Z,21.13
2018-11-25T07:10:23.174Z,23.23
2018-11-25T07:12:54.040Z,24.17
2018-11-25T07:15:22.976Z,23.00
2018-11-25T07:17:52.351Z,24.00
2018-11-25T07:20:21.324Z,23.73
2018-11-25T07:22:50.300Z,24.17
2018-11-25T07:25:21.345Z,23.40
2018-11-25T07:27:50.497Z,23.50
2018-11-25T07:30:22.648Z,20.53
2018-11-25T07:32:51.740Z,20.40
2018-11-25T07:35:20.913Z,20.33
2018-11-25T07:37:50.209Z,21.13
2018-11-25T07:40:20.943Z,20.23
2018-11-25T07:42:50.135Z,20.13
2018-11-25T07:45:20.724Z,18.63
2018-11-25T07:47:49.686Z,19.20
2018-11-25T07:50:18.812Z,18.90
2018-11-25T07:52:48.427Z,21.33
2018-11-25T07:55:24.582Z,19.83
2018-11-25T07:57:54.888Z,19.63
2018-11-25T08:00:24.726Z,19.50
2018-11-25T08:02:53.684Z,20.37
2018-11-25T08:05:24.916Z,19.07
2018-11-25T08:07:53.827Z,19.30
2018-11-25T08:10:22.789Z,21.17
2018-11-25T08:12:51.708Z,20.23
2018-11-25T08:15:20.950Z,22.00
2018-11-25T08:17:49.883Z,20.40
2018-11-25T08:20:20.780Z,21.80
2018-11-25T08:22:49.852Z,19.77
2018-11-25T08:25:19.731Z,19.43
2018-11-25T08:27:48.699Z,21.40
2018-11-25T08:30:18.701Z,20.53
2018-11-25T08:32:47.636Z,22.40
2018-11-25T08:35:18.234Z,22.53
2018-11-25T08:37:47.528Z,21.20
2018-11-25T08:40:19.632Z,20.93
2018-11-25T08:42:48.572Z,21.53
2018-11-25T08:45:17.522Z,20.53
2018-11-25T08:47:46.459Z,21.90
2018-11-25T08:50:17.214Z,20.30
2018-11-25T08:52:47.324Z,19.50
2018-11-25T08:55:18.066Z,21.30
2018-11-25T08:57:46.969Z,20.53
2018-11-25T09:00:17.929Z,23.43
2018-11-25T09:02:47.135Z,21.17
2018-11-25T09:05:16.368Z,21.20
2018-11-25T09:07:45.320Z,22.03
2018-11-25T09:10:22.388Z,22.63
2018-11-25T09:12:56.028Z,19.73
2018-11-25T09:15:24.874Z,20.33
2018-11-25T09:17:53.820Z,21.93
2018-11-25T09:20:22.847Z,20.50
2018-11-25T09:22:52.358Z,23.00
2018-11-25T09:25:22.706Z,22.70
2018-11-25T09:27:52.056Z,23.00
2018-11-25T09:30:22.112Z,23.83
2018-11-25T09:32:51.047Z,23.40
2018-11-25T09:35:20.025Z,21.73
2018-11-25T09:37:48.968Z,24.40
2018-11-25T09:40:22.898Z,21.70
2018-11-25T09:42:51.825Z,23.50
2018-11-25T09:45:20.996Z,24.77
2018-11-25T09:47:50.484Z,24.50
2018-11-25T09:50:20.325Z,22.50
2018-11-25T09:52:49.251Z,23.43
2018-11-25T09:55:20.138Z,23.57
2018-11-25T09:58:03.841Z,23.63
2018-11-25T10:00:33.916Z,23.50
2018-11-25T10:03:03.688Z,22.83
2018-11-25T10:05:32.626Z,22.40
2018-11-25T10:08:01.668Z,25.93
2018-11-25T10:10:30.604Z,23.97
2018-11-25T10:12:59.542Z,25.47
2018-11-25T10:15:29.208Z,23.97
2018-11-25T10:17:59.946Z,25.23
2018-11-25T10:20:29.560Z,26.83
2018-11-25T10:22:58.489Z,26.27
2018-11-25T10:25:27.440Z,25.73
2018-11-25T10:27:56.494Z,25.77
2018-11-25T10:30:27.356Z,24.50
2018-11-25T10:32:58.399Z,26.90
2018-11-25T10:35:28.763Z,25.40
2018-11-25T10:37:57.775Z,26.20
2018-11-25T10:40:27.773Z,27.20
2018-11-25T10:42:56.793Z,27.23
2018-11-25T10:45:26.510Z,26.60
2018-11-25T10:47:56.996Z,26.40
2018-11-25T10:50:25.953Z,26.60
2018-11-25T10:52:54.913Z,26.53
2018-11-25T10:55:23.929Z,27.07
2018-11-25T10:57:53.467Z,30.17
2018-11-25T11:00:31.398Z,29.00
2018-11-25T11:03:06.479Z,29.33
2018-11-25T11:05:40.805Z,29.23
2018-11-25T11:08:10.096Z,29.50
2018-11-25T11:10:39.080Z,28.60
2018-11-25T11:13:08.495Z,27.57
2018-11-25T11:15:37.491Z,29.80
2018-11-25T11:18:07.093Z,31.30
2018-11-25T11:20:36.070Z,29.53
2018-11-25T11:23:05.008Z,30.83
2018-11-25T11:25:33.973Z,30.08
2018-11-25T11:28:02.985Z,30.77
2018-11-25T11:30:31.926Z,30.20
2018-11-25T11:33:00.904Z,27.37
2018-11-25T11:35:29.870Z,28.70
2018-11-25T11:37:58.879Z,28.30
2018-11-25T11:40:27.820Z,29.20
2018-11-25T11:42:56.852Z,28.93
2018-11-25T11:45:25.900Z,30.60
2018-11-25T11:47:54.885Z,28.77
2018-11-25T11:50:23.886Z,29.00
2018-11-25T11:52:52.834Z,30.80
2018-11-25T11:55:21.857Z,29.60
2018-11-25T11:57:52.037Z,31.07
2018-11-25T12:00:25.377Z,30.57
2018-11-25T12:02:59.998Z,30.03
2018-11-25T12:05:29.036Z,30.90
2018-11-25T12:07:58.131Z,30.27
2018-11-25T12:10:27.445Z,31.60
2018-11-25T12:12:56.460Z,32.43
2018-11-25T12:15:30.875Z,30.00
2018-11-25T12:17:59.257Z,30.97
2018-11-25T12:20:29.985Z,29.40
2018-11-25T12:22:59.383Z,30.43
2018-11-25T12:25:29.395Z,30.10
2018-11-25T12:28:00.821Z,29.13
2018-11-25T12:30:30.618Z,30.90
2018-11-25T12:32:59.594Z,30.57
2018-11-25T12:35:28.559Z,29.80
2018-11-25T12:37:57.519Z,29.90
2018-11-25T12:40:26.466Z,30.13
2018-11-25T12:42:56.789Z,30.80
2018-11-25T12:45:25.741Z,32.23
2018-11-25T12:47:54.717Z,30.53
2018-11-25T12:50:24.839Z,31.97
2018-11-25T12:52:53.978Z,30.07
2018-11-25T12:55:24.162Z,44.77
2018-11-25T12:57:53.429Z,31.97
2018-11-25T13:00:28.619Z,32.70
2018-11-25T13:02:57.586Z,29.90
2018-11-25T13:05:26.533Z,30.93
2018-11-25T13:07:55.498Z,29.27
2018-11-25T13:10:24.466Z,28.53
2018-11-25T13:12:56.379Z,29.37
2018-11-25T13:15:27.555Z,29.87
2018-11-25T13:17:57.055Z,29.70
2018-11-25T13:20:25.983Z,29.80
2018-11-25T13:22:54.928Z,30.37
2018-11-25T13:25:23.881Z,30.27
2018-11-25T13:27:52.833Z,29.23
2018-11-25T13:30:22.975Z,28.20
2018-11-25T13:32:53.313Z,30.17
2018-11-25T13:35:22.429Z,27.97
2018-11-25T13:37:51.371Z,30.67
2018-11-25T13:40:20.360Z,29.70
2018-11-25T13:42:49.306Z,32.90
2018-11-25T13:45:18.223Z,30.27
2018-11-25T13:47:47.222Z,29.93
2018-11-25T13:50:16.170Z,31.37
2018-11-25T13:52:45.126Z,30.87
2018-11-25T13:55:15.573Z,30.80
2018-11-25T14:00:45.981Z,32.93
2018-11-25T14:03:19.735Z,30.00
2018-11-25T14:05:53.223Z,32.83
2018-11-25T14:08:17.691Z,31.43
2018-11-25T14:10:46.648Z,31.97
2018-11-25T14:13:15.610Z,31.50
2018-11-25T14:15:44.569Z,32.20
2018-11-25T14:18:13.474Z,32.77
2018-11-25T14:20:42.497Z,34.17
2018-11-25T14:23:11.463Z,32.07
2018-11-25T14:25:40.660Z,35.10
2018-11-25T14:28:11.096Z,31.50
2018-11-25T14:30:40.048Z,37.67
2018-11-25T14:33:08.997Z,33.53
2018-11-25T14:35:37.931Z,32.40
2018-11-25T14:38:07.510Z,32.13
2018-11-25T14:40:36.437Z,35.53
2018-11-25T14:43:06.116Z,31.70
2018-11-25T14:45:35.092Z,31.67
2018-11-25T14:48:04.049Z,33.33
2018-11-25T14:50:32.991Z,29.47
2018-11-25T14:53:02.007Z,32.50
2018-11-25T14:55:32.171Z,34.10
2018-11-25T14:58:01.167Z,33.20
2018-11-25T15:00:30.132Z,32.93
2018-11-25T15:03:01.404Z,33.97
2018-11-25T15:05:45.694Z,34.00
2018-11-25T15:08:20.950Z,34.73
2018-11-25T15:10:49.878Z,34.67
2018-11-25T15:13:18.892Z,34.43
2018-11-25T15:15:49.248Z,34.27
2018-11-25T15:18:18.196Z,33.80
2018-11-25T15:20:47.231Z,34.77
2018-11-25T15:23:16.450Z,34.07
2018-11-25T15:25:48.082Z,34.00
2018-11-25T15:28:17.019Z,33.47
2018-11-25T15:30:46.025Z,33.73
2018-11-25T15:33:14.945Z,35.80
2018-11-25T15:35:43.913Z,34.47
2018-11-25T15:38:12.926Z,34.33
2018-11-25T15:40:42.117Z,34.50
2018-11-25T15:43:11.835Z,33.80
2018-11-25T15:45:40.813Z,37.60
2018-11-25T15:48:30.953Z,35.43
2018-11-25T15:50:59.946Z,36.93
2018-11-25T15:53:28.907Z,35.70
2018-11-25T15:55:59.791Z,33.30
2018-11-25T15:58:28.742Z,32.80
2018-11-25T16:00:57.727Z,33.10
2018-11-25T16:03:26.703Z,34.50
2018-11-25T16:05:58.321Z,32.87
2018-11-25T16:08:27.313Z,34.13
2018-11-25T16:10:56.333Z,35.13
2018-11-25T16:13:25.311Z,35.03
2018-11-25T16:15:54.355Z,33.73
2018-11-25T16:18:23.327Z,31.70
2018-11-25T16:20:52.299Z,30.67
2018-11-25T16:23:21.277Z,33.27
2018-11-25T16:25:53.146Z,34.40
2018-11-25T16:28:26.917Z,34.40
2018-11-25T16:30:55.918Z,30.10
2018-11-25T16:33:24.870Z,30.57
2018-11-25T16:35:53.859Z,32.13
2018-11-25T16:38:22.823Z,33.60
2018-11-25T16:40:51.781Z,34.33
2018-11-25T16:43:21.851Z,25.90
2018-11-25T16:45:50.896Z,26.87
2018-11-25T16:48:19.904Z,27.00
2018-11-25T16:50:48.951Z,25.70
2018-11-25T16:53:17.908Z,25.30
2018-11-25T16:55:47.031Z,25.37
2018-11-25T16:58:31.168Z,25.70
2018-11-25T17:01:09.822Z,26.53
2018-11-25T17:03:35.283Z,27.43
2018-11-25T17:06:04.641Z,28.97
2018-11-25T17:08:35.497Z,25.00
2018-11-25T17:11:04.658Z,25.27
2018-11-25T17:16:17.889Z,23.20
2018-11-25T17:18:46.894Z,25.67
2018-11-25T17:21:15.934Z,24.00
2018-11-25T17:23:48.474Z,25.10
2018-11-25T17:26:17.552Z,26.07
2018-11-25T17:28:46.533Z,24.80
2018-11-25T17:31:15.538Z,25.50
2018-11-25T17:33:44.509Z,26.60
2018-11-25T17:36:13.525Z,24.10
2018-11-25T17:38:42.577Z,24.67
2018-11-25T17:41:11.581Z,26.10
2018-11-25T17:43:41.510Z,25.87
2018-11-25T17:46:11.144Z,25.83
2018-11-25T17:48:40.141Z,28.90
2018-11-25T17:51:09.139Z,26.57
2018-11-25T17:53:38.121Z,27.13
2018-11-25T17:56:10.610Z,25.70
2018-11-25T17:58:39.548Z,25.07
2018-11-25T18:01:08.555Z,24.80
2018-11-25T18:03:38.240Z,26.97
2018-11-25T18:06:07.294Z,27.03
2018-11-25T18:08:36.238Z,27.10
2018-11-25T18:11:05.440Z,26.50
2018-11-25T18:13:37.668Z,27.07
2018-11-25T18:16:08.962Z,26.23
2018-11-25T18:18:46.928Z,28.30
2018-11-25T18:21:20.971Z,27.33
2018-11-25T18:23:49.914Z,26.70
2018-11-25T18:26:18.867Z,26.60
2018-11-25T18:28:47.798Z,26.53
2018-11-25T18:31:16.763Z,27.83
2018-11-25T18:33:45.717Z,26.20
2018-11-25T18:36:14.788Z,30.30
2018-11-25T18:38:43.742Z,24.70
2018-11-25T18:41:12.719Z,26.40
2018-11-25T18:43:42.109Z,24.43
2018-11-25T18:46:11.081Z,26.20
2018-11-25T18:48:42.848Z,24.40
2018-11-25T18:51:11.827Z,27.13
2018-11-25T18:53:40.867Z,26.30
2018-11-25T18:56:09.824Z,25.67
2018-11-25T18:58:38.889Z,25.93
2018-11-25T19:01:16.598Z,24.37
2018-11-25T19:03:45.526Z,25.07
2018-11-25T19:06:14.479Z,23.30
2018-11-25T19:08:43.443Z,23.23
2018-11-25T19:11:12.648Z,24.70
2018-11-25T19:13:42.238Z,25.77
2018-11-25T19:16:11.190Z,23.83
2018-11-25T19:18:40.139Z,24.67
2018-11-25T19:21:09.109Z,23.53
2018-11-25T19:23:38.096Z,25.97
2018-11-25T19:26:07.357Z,24.43
2018-11-25T19:28:36.354Z,22.80
2018-11-25T19:31:05.325Z,25.07
2018-11-25T19:33:34.459Z,25.87
2018-11-25T19:36:03.408Z,26.10
2018-11-25T19:38:32.338Z,24.27
2018-11-25T19:41:01.270Z,25.10
2018-11-25T19:43:30.224Z,25.23
2018-11-25T19:45:59.161Z,24.33
2018-11-25T19:48:28.091Z,24.97
2018-11-25T19:50:57.114Z,26.63
2018-11-25T19:53:26.070Z,25.73
2018-11-25T19:55:54.986Z,26.30
2018-11-25T19:58:23.947Z,24.00
2018-11-25T20:00:52.888Z,27.90
2018-11-25T20:03:21.824Z,23.40
2018-11-25T20:05:50.771Z,22.80
2018-11-25T20:08:26.529Z,23.30
2018-11-25T20:10:55.456Z,22.13
2018-11-25T20:13:24.446Z,22.17
2018-11-25T20:15:53.387Z,23.17
2018-11-25T20:18:22.386Z,24.10
2018-11-25T20:20:56.556Z,24.93
2018-11-25T20:23:25.514Z,23.50
2018-11-25T20:25:54.415Z,23.63
2018-11-25T20:28:23.371Z,24.30
2018-11-25T20:30:52.297Z,23.03
2018-11-25T20:33:26.728Z,21.07
2018-11-25T20:35:55.658Z,23.77
2018-11-25T20:38:29.983Z,23.83
2018-11-25T20:40:58.900Z,22.20
2018-11-25T20:43:27.833Z,23.83
2018-11-25T20:46:02.001Z,23.63
2018-11-25T20:48:30.936Z,24.07
2018-11-25T20:50:59.877Z,26.10
2018-11-25T20:53:34.115Z,24.80
2018-11-25T20:56:03.026Z,26.33
2018-11-25T20:58:31.990Z,23.87
2018-11-25T21:01:00.923Z,22.50
2018-11-25T21:03:29.942Z,25.17
2018-11-25T21:05:58.976Z,25.07
2018-11-25T21:08:27.932Z,25.33
2018-11-25T21:10:56.855Z,26.80
2018-11-25T21:13:25.820Z,25.30
2018-11-25T21:15:54.755Z,24.70
2018-11-25T21:18:23.703Z,28.00
2018-11-25T21:20:52.675Z,26.20
2018-11-25T21:23:21.625Z,23.93
2018-11-25T21:25:50.580Z,27.37
2018-11-25T21:28:19.527Z,25.77
2018-11-25T21:30:48.502Z,25.80
2018-11-25T21:33:17.428Z,24.77
2018-11-25T21:35:46.357Z,25.60
2018-11-25T21:38:15.333Z,25.30
2018-11-25T21:40:44.276Z,26.47
2018-11-25T21:43:13.294Z,26.17
2018-11-25T21:45:42.285Z,26.20
2018-11-25T21:48:11.347Z,28.37
2018-11-25T21:50:40.332Z,26.87
2018-11-25T21:53:09.261Z,26.77
2018-11-25T21:55:38.233Z,25.67
2018-11-25T21:58:07.309Z,28.63
2018-11-25T22:00:36.248Z,27.37
2018-11-25T22:03:05.175Z,25.77
2018-11-25T22:05:34.120Z,24.30
2018-11-25T22:08:03.803Z,24.37
2018-11-25T22:10:33.541Z,24.43
2018-11-25T22:13:03.474Z,25.27
2018-11-25T22:15:32.421Z,26.57
2018-11-25T22:18:01.366Z,25.70
2018-11-25T22:20:30.343Z,23.10
2018-11-25T22:22:59.328Z,24.07
2018-11-25T22:25:28.291Z,23.97
2018-11-25T22:27:57.268Z,23.73
2018-11-25T22:30:26.277Z,25.30
2018-11-25T22:32:55.212Z,24.93
2018-11-25T22:35:25.356Z,25.50
2018-11-25T22:37:54.329Z,24.87
2018-11-25T22:40:23.472Z,26.63
2018-11-25T22:42:52.455Z,26.27
2018-11-25T22:45:22.629Z,25.80
2018-11-25T22:47:51.599Z,25.27
2018-11-25T22:50:21.432Z,23.30
2018-11-25T22:52:50.476Z,26.17
2018-11-25T22:55:21.821Z,27.03
2018-11-25T22:57:51.038Z,28.03
2018-11-25T23:00:37.469Z,26.20
2018-11-25T23:03:07.094Z,24.77
2018-11-25T23:05:47.476Z,27.03
2018-11-25T23:08:16.427Z,28.17
2018-11-25T23:10:45.362Z,24.97
2018-11-25T23:13:14.338Z,26.00
2018-11-25T23:15:43.303Z,22.90
2018-11-25T23:18:12.276Z,24.87
2018-11-25T23:20:41.226Z,24.23
2018-11-25T23:23:10.186Z,24.93
2018-11-25T23:25:39.159Z,24.93
2018-11-25T23:28:08.072Z,22.00
2018-11-25T23:30:37.119Z,23.47
2018-11-25T23:33:06.084Z,22.47
2018-11-25T23:35:35.139Z,23.50
2018-11-25T23:38:04.129Z,22.00
2018-11-25T23:40:33.100Z,22.70
2018-11-25T23:43:02.107Z,22.87
2018-11-25T23:45:31.043Z,23.43
2018-11-25T23:47:59.979Z,24.13
2018-11-25T23:50:29.108Z,23.40
2018-11-25T23:52:58.130Z,25.20
2018-11-25T23:55:27.092Z,23.47
2018-11-25T23:57:56.052Z,25.10
